Main page
METAR-TAF:

METAR-TAF

Airports :

Cognac – Châteaubernard Air Base

Cognac, France

latitude: 45-40N, longitude: 000-19W, elevation: 30 m

Current weather observation

The report was made 40 minutes ago, at 22:00 UTC
Wind 4 kt from the Southwest
Temperature 10°C
Humidity 76%
Pressure 1014 hPa
Visibility 10 km or more
no clouds below 1500 m and no cumulonimbus

METAR: LFBG 242200Z AUTO 22004KT CAVOK 10/06 Q1014

Time: 00:40 (22:40 UTC)

Forecast

The report was made 8 hours and 40 minutes ago, at 14:00 UTC
Forecast valid from 24 at 15 UTC to 25 at 15 UTC
Wind 8 kt from the West
Visibility 10 km or more
Broken clouds at a height of 4000 ft
Temporary
from 24 at 15 UTC to 25 at 15 UTC
Visibility: 4000 m
Broken clouds at a height of 3500 ft, Towering cumulus.
light rain showers,

TAF: LFBG 241400Z 2415/2515 28008KT 9999 BKN040 TEMPO 2415/2515 4000 -SHRA BKN035TCU

Weather observations and forecasts of more than 4000 airports (METAR and TAF reports).

The available stations are represented by yellow and red dots on the map.

Hover mouse over dot to see the name of the station.

Then click to see weather observations and forecasts.

To change the map : click on the green buttons with a black cross to zoom in, on the green button with a dash to zoom out, or on the green arrows for adjacent maps.


METAR-TAF: